SAS1445 ESGG-ESSA
Flight info
| Callsign | SAS1445 |
|---|---|
| Flight time | N/A |
| Altitude | 27000 |
| Route | LABAN N873 ARS T317 ELTOK |
| Aircraft | A320/M-SDE3FGHIRWY/LB1 |
Departure
| Time | 2026-05-05 15:43 |
|---|---|
| Airport | Göteborg Landvetter Airport (ESGG) |
Arrival
| Time | N/A |
|---|---|
| Airport | Stockholm-Arlanda Airport (ESSA) |
| Time | Latitude | Longitude | Altitude | Speed | Heading |
|---|---|---|---|---|---|
| 2026-05-05 15:22 | 57.66887 | 12.29426 | 516 ft | 0 kts | 116° |
| 2026-05-05 15:35 | 57.66888 | 12.29421 | 516 ft | 2 kts | 116° |
| 2026-05-05 15:35 | 57.66895 | 12.29394 | 516 ft | 3 kts | 116° |
| 2026-05-05 15:35 | 57.66900 | 12.29374 | 516 ft | 3 kts | 116° |
| 2026-05-05 15:36 | 57.66908 | 12.29344 | 516 ft | 3 kts | 116° |
| 2026-05-05 15:36 | 57.66913 | 12.29313 | 516 ft | 3 kts | 70° |
| 2026-05-05 15:36 | 57.66904 | 12.29285 | 516 ft | 3 kts | 34° |
| 2026-05-05 15:36 | 57.66889 | 12.29269 | 516 ft | 0 kts | 26° |
| 2026-05-05 15:39 | 57.66892 | 12.29272 | 516 ft | 2 kts | 26° |
| 2026-05-05 15:39 | 57.66913 | 12.29291 | 516 ft | 5 kts | 26° |
| 2026-05-05 15:39 | 57.66954 | 12.29330 | 516 ft | 8 kts | 26° |
| 2026-05-05 15:39 | 57.66984 | 12.29302 | 516 ft | 6 kts | 290° |
| 2026-05-05 15:40 | 57.67006 | 12.29218 | 516 ft | 8 kts | 300° |
| 2026-05-05 15:40 | 57.67065 | 12.29205 | 516 ft | 10 kts | 24° |
| 2026-05-05 15:40 | 57.67134 | 12.29268 | 516 ft | 12 kts | 26° |
| 2026-05-05 15:40 | 57.67216 | 12.29341 | 516 ft | 14 kts | 26° |
| 2026-05-05 15:41 | 57.67310 | 12.29428 | 516 ft | 16 kts | 27° |
| 2026-05-05 15:41 | 57.67414 | 12.29456 | 516 ft | 16 kts | 316° |
| 2026-05-05 15:41 | 57.67461 | 12.29259 | 515 ft | 17 kts | 276° |
| 2026-05-05 15:41 | 57.67423 | 12.29039 | 515 ft | 19 kts | 233° |
| 2026-05-05 15:42 | 57.67313 | 12.28917 | 515 ft | 20 kts | 208° |
| 2026-05-05 15:42 | 57.67054 | 12.28682 | 514 ft | 74 kts | 205° |
| 2026-05-05 15:42 | 57.66412 | 12.28102 | 511 ft | 128 kts | 207° |
| 2026-05-05 15:42 | 57.65491 | 12.27246 | 648 ft | 155 kts | 209° |
| 2026-05-05 15:43 | 57.64559 | 12.26451 | 1440 ft | 143 kts | 212° |
| 2026-05-05 15:43 | 57.63609 | 12.25627 | 1789 ft | 159 kts | 210° |
| 2026-05-05 15:43 | 57.62452 | 12.25090 | 1883 ft | 193 kts | 174° |
| 2026-05-05 15:43 | 57.61093 | 12.25966 | 2185 ft | 220 kts | 160° |
| 2026-05-05 15:44 | 57.59650 | 12.27087 | 2838 ft | 227 kts | 159° |
| 2026-05-05 15:44 | 57.58193 | 12.28245 | 3621 ft | 229 kts | 154° |
| 2026-05-05 15:44 | 57.57034 | 12.30279 | 4345 ft | 236 kts | 115° |
| 2026-05-05 15:44 | 57.56770 | 12.33287 | 4854 ft | 248 kts | 77° |
| 2026-05-05 15:45 | 57.57273 | 12.36471 | 5224 ft | 268 kts | 66° |
| 2026-05-05 15:45 | 57.57986 | 12.39772 | 5888 ft | 279 kts | 64° |
| 2026-05-05 15:45 | 57.58759 | 12.43111 | 6682 ft | 286 kts | 63° |
| 2026-05-05 15:45 | 57.59554 | 12.46550 | 7478 ft | 292 kts | 63° |
| 2026-05-05 15:46 | 57.60350 | 12.50076 | 8250 ft | 298 kts | 63° |
| 2026-05-05 15:46 | 57.61145 | 12.53694 | 9025 ft | 305 kts | 63° |
| 2026-05-05 15:46 | 57.62143 | 12.57188 | 9758 ft | 305 kts | 48° |
| 2026-05-05 15:46 | 57.63538 | 12.60174 | 10281 ft | 311 kts | 34° |
| 2026-05-05 15:47 | 57.65285 | 12.62573 | 10482 ft | 327 kts | 26° |
| 2026-05-05 15:47 | 57.67221 | 12.64982 | 10909 ft | 340 kts | 26° |
| 2026-05-05 15:47 | 57.69208 | 12.67474 | 11511 ft | 347 kts | 27° |
| 2026-05-05 15:47 | 57.71230 | 12.70043 | 12125 ft | 355 kts | 27° |
| 2026-05-05 15:48 | 57.73287 | 12.72673 | 12739 ft | 362 kts | 27° |
| 2026-05-05 15:48 | 57.75380 | 12.75368 | 13341 ft | 369 kts | 28° |
| 2026-05-05 15:48 | 57.77511 | 12.78118 | 13927 ft | 376 kts | 28° |
| 2026-05-05 15:48 | 57.79678 | 12.80916 | 14507 ft | 380 kts | 28° |
| 2026-05-05 15:49 | 57.81868 | 12.83737 | 15102 ft | 384 kts | 28° |
| 2026-05-05 15:49 | 57.84078 | 12.86581 | 15756 ft | 386 kts | 27° |
| 2026-05-05 15:49 | 57.86278 | 12.89410 | 16302 ft | 391 kts | 27° |
| 2026-05-05 15:49 | 57.88536 | 12.92314 | 16866 ft | 395 kts | 27° |
| 2026-05-05 15:50 | 57.90814 | 12.95246 | 17448 ft | 399 kts | 27° |
| 2026-05-05 15:50 | 57.93113 | 12.98221 | 18025 ft | 403 kts | 27° |
| 2026-05-05 15:50 | 57.95437 | 13.01237 | 18556 ft | 408 kts | 28° |
| 2026-05-05 15:50 | 57.97764 | 13.04270 | 19074 ft | 411 kts | 28° |
| 2026-05-05 15:51 | 58.00120 | 13.07353 | 19607 ft | 415 kts | 28° |
| 2026-05-05 15:51 | 58.02511 | 13.10478 | 20138 ft | 419 kts | 28° |
| 2026-05-05 15:51 | 58.04815 | 13.13483 | 20628 ft | 422 kts | 28° |
| 2026-05-05 15:51 | 58.07191 | 13.16588 | 21118 ft | 426 kts | 28° |
| 2026-05-05 15:52 | 58.09637 | 13.19795 | 21641 ft | 430 kts | 28° |
| 2026-05-05 15:52 | 58.12099 | 13.23032 | 22134 ft | 433 kts | 28° |
| 2026-05-05 15:52 | 58.14589 | 13.26304 | 22621 ft | 437 kts | 28° |
| 2026-05-05 15:52 | 58.17000 | 13.29903 | 23129 ft | 447 kts | 37° |
| 2026-05-05 15:53 | 58.19150 | 13.34248 | 23595 ft | 456 kts | 45° |
| 2026-05-05 15:53 | 58.21213 | 13.38843 | 24009 ft | 459 kts | 45° |
| 2026-05-05 15:53 | 58.23289 | 13.43472 | 24430 ft | 462 kts | 45° |
| 2026-05-05 15:53 | 58.25379 | 13.48122 | 24844 ft | 464 kts | 45° |
| 2026-05-05 15:54 | 58.27484 | 13.52810 | 25254 ft | 467 kts | 45° |
| 2026-05-05 15:54 | 58.29586 | 13.57492 | 25655 ft | 469 kts | 45° |
| 2026-05-05 15:54 | 58.31709 | 13.62231 | 26094 ft | 473 kts | 44° |
| 2026-05-05 15:54 | 58.33848 | 13.67014 | 26444 ft | 477 kts | 44° |
| 2026-05-05 15:55 | 58.36004 | 13.71846 | 26794 ft | 480 kts | 44° |
| 2026-05-05 15:55 | 58.38157 | 13.76684 | 26895 ft | 475 kts | 45° |
| 2026-05-05 15:55 | 58.40259 | 13.81442 | 26904 ft | 465 kts | 45° |
| 2026-05-05 15:55 | 58.42329 | 13.86138 | 26913 ft | 461 kts | 45° |
| 2026-05-05 15:56 | 58.44390 | 13.90808 | 26914 ft | 460 kts | 45° |
| 2026-05-05 15:56 | 58.46452 | 13.95480 | 26912 ft | 460 kts | 45° |
| 2026-05-05 15:56 | 58.48510 | 14.00149 | 26912 ft | 460 kts | 45° |
| 2026-05-05 15:56 | 58.50568 | 14.04827 | 26912 ft | 460 kts | 45° |
| 2026-05-05 15:57 | 58.51933 | 14.07934 | 26902 ft | 460 kts | 45° |
| 2026-05-05 15:57 | 58.53205 | 14.10835 | 26901 ft | 460 kts | 45° |
| 2026-05-05 15:57 | 58.55260 | 14.15528 | 26912 ft | 461 kts | 45° |
| 2026-05-05 15:57 | 58.57315 | 14.20242 | 26898 ft | 461 kts | 45° |
| 2026-05-05 15:58 | 58.59364 | 14.24951 | 26884 ft | 461 kts | 45° |
| 2026-05-05 15:58 | 58.61419 | 14.29675 | 26884 ft | 461 kts | 45° |
| 2026-05-05 15:58 | 58.63470 | 14.34401 | 26883 ft | 461 kts | 45° |
| 2026-05-05 15:58 | 58.65522 | 14.39145 | 26883 ft | 462 kts | 45° |
| 2026-05-05 15:59 | 58.67571 | 14.43892 | 26887 ft | 462 kts | 45° |
| 2026-05-05 15:59 | 58.69622 | 14.48646 | 26886 ft | 462 kts | 45° |
| 2026-05-05 15:59 | 58.71668 | 14.53401 | 26887 ft | 462 kts | 45° |
| 2026-05-05 15:59 | 58.73717 | 14.58172 | 26888 ft | 462 kts | 45° |
| 2026-05-05 16:00 | 58.75765 | 14.62946 | 26888 ft | 462 kts | 45° |
| 2026-05-05 16:00 | 58.77810 | 14.67725 | 26913 ft | 462 kts | 45° |
| 2026-05-05 16:00 | 58.79853 | 14.72512 | 26903 ft | 463 kts | 45° |
| 2026-05-05 16:00 | 58.81898 | 14.77314 | 26898 ft | 463 kts | 45° |
| 2026-05-05 16:01 | 58.83940 | 14.82117 | 26897 ft | 464 kts | 45° |
| 2026-05-05 16:01 | 58.85986 | 14.86935 | 26892 ft | 464 kts | 45° |
| 2026-05-05 16:01 | 58.88029 | 14.91753 | 26891 ft | 464 kts | 45° |
| 2026-05-05 16:01 | 58.90068 | 14.96578 | 26891 ft | 464 kts | 45° |
| 2026-05-05 16:02 | 58.92107 | 15.01416 | 26891 ft | 464 kts | 45° |
| 2026-05-05 16:02 | 58.94147 | 15.06269 | 26892 ft | 464 kts | 45° |
| 2026-05-05 16:02 | 58.96184 | 15.11124 | 26892 ft | 464 kts | 45° |
| 2026-05-05 16:02 | 58.98216 | 15.15977 | 26893 ft | 464 kts | 46° |
| 2026-05-05 16:03 | 58.99867 | 15.19926 | 26950 ft | 464 kts | 46° |
| 2026-05-05 16:03 | 59.01907 | 15.24811 | 26899 ft | 465 kts | 46° |
| 2026-05-05 16:03 | 59.03941 | 15.29692 | 26837 ft | 464 kts | 46° |
| 2026-05-05 16:03 | 59.05952 | 15.34539 | 26561 ft | 457 kts | 46° |
| 2026-05-05 16:04 | 59.07931 | 15.39328 | 26313 ft | 451 kts | 46° |
| 2026-05-05 16:04 | 59.09869 | 15.44023 | 26064 ft | 446 kts | 46° |
| 2026-05-05 16:04 | 59.11801 | 15.48704 | 25806 ft | 442 kts | 46° |
| 2026-05-05 16:04 | 59.13719 | 15.53353 | 25526 ft | 440 kts | 46° |
| 2026-05-05 16:05 | 59.15632 | 15.57993 | 25279 ft | 438 kts | 46° |
| 2026-05-05 16:05 | 59.17536 | 15.62621 | 25029 ft | 437 kts | 46° |
| 2026-05-05 16:05 | 59.19433 | 15.67241 | 24773 ft | 433 kts | 46° |
| 2026-05-05 16:05 | 59.21307 | 15.71818 | 24388 ft | 431 kts | 46° |
| 2026-05-05 16:06 | 59.23175 | 15.76387 | 23993 ft | 431 kts | 46° |
| 2026-05-05 16:06 | 59.25044 | 15.80973 | 23549 ft | 431 kts | 46° |
| 2026-05-05 16:06 | 59.26889 | 15.85519 | 23086 ft | 430 kts | 46° |
| 2026-05-05 16:06 | 59.28736 | 15.90089 | 22673 ft | 427 kts | 46° |
| 2026-05-05 16:07 | 59.30576 | 15.94642 | 22238 ft | 425 kts | 46° |
| 2026-05-05 16:07 | 59.32406 | 15.99172 | 21806 ft | 423 kts | 46° |
| 2026-05-05 16:07 | 59.34227 | 16.03684 | 21378 ft | 421 kts | 46° |
| 2026-05-05 16:07 | 59.36037 | 16.08176 | 20951 ft | 420 kts | 46° |
| 2026-05-05 16:08 | 59.37841 | 16.12669 | 20521 ft | 418 kts | 46° |
| 2026-05-05 16:08 | 59.39634 | 16.17151 | 20094 ft | 417 kts | 46° |
| 2026-05-05 16:08 | 59.41424 | 16.21626 | 19674 ft | 416 kts | 46° |
| 2026-05-05 16:08 | 59.43212 | 16.26092 | 19230 ft | 415 kts | 46° |
| 2026-05-05 16:09 | 59.44992 | 16.30549 | 18855 ft | 415 kts | 46° |
| 2026-05-05 16:09 | 59.46676 | 16.35204 | 17978 ft | 430 kts | 58° |
| 2026-05-05 16:09 | 59.47664 | 16.40748 | 17128 ft | 428 kts | 80° |
| 2026-05-05 16:09 | 59.48081 | 16.46461 | 16410 ft | 417 kts | 83° |
| 2026-05-05 16:10 | 59.48468 | 16.52055 | 15736 ft | 407 kts | 82° |
| 2026-05-05 16:10 | 59.48842 | 16.57507 | 15115 ft | 397 kts | 82° |
| 2026-05-05 16:10 | 59.49202 | 16.62802 | 14538 ft | 386 kts | 82° |
| 2026-05-05 16:10 | 59.49550 | 16.67973 | 13939 ft | 376 kts | 81° |
| 2026-05-05 16:11 | 59.49887 | 16.73006 | 13348 ft | 366 kts | 81° |
| 2026-05-05 16:11 | 59.50797 | 16.86883 | 12364 ft | 321 kts | 81° |
| 2026-05-05 16:12 | 59.51065 | 16.91113 | 11979 ft | 310 kts | 84° |
| 2026-05-05 16:12 | 59.50543 | 16.99702 | 11155 ft | 320 kts | 102° |
| 2026-05-05 16:13 | 59.49214 | 17.12357 | 10263 ft | 309 kts | 102° |
| 2026-05-05 16:13 | 59.48775 | 17.16522 | 10011 ft | 303 kts | 102° |
| 2026-05-05 16:13 | 59.48355 | 17.20489 | 9510 ft | 298 kts | 102° |
| 2026-05-05 16:14 | 59.47503 | 17.28365 | 8281 ft | 291 kts | 102° |
| 2026-05-05 16:14 | 59.46644 | 17.36084 | 7091 ft | 289 kts | 102° |
| 2026-05-05 16:15 | 59.45766 | 17.43743 | 6845 ft | 287 kts | 104° |
| 2026-05-05 16:15 | 59.44392 | 17.51034 | 6640 ft | 285 kts | 112° |
| 2026-05-05 16:16 | 59.42894 | 17.58213 | 5994 ft | 283 kts | 112° |
| 2026-05-05 16:16 | 59.41421 | 17.65232 | 5541 ft | 264 kts | 112° |
| 2026-05-05 16:17 | 59.40109 | 17.71425 | 5270 ft | 230 kts | 112° |
| 2026-05-05 16:17 | 59.39513 | 17.74254 | 5048 ft | 220 kts | 112° |
| 2026-05-05 16:18 | 59.38954 | 17.79819 | 4596 ft | 194 kts | 82° |
| 2026-05-05 16:18 | 59.39444 | 17.82098 | 4455 ft | 174 kts | 46° |
| 2026-05-05 16:18 | 59.41132 | 17.84977 | 4150 ft | 151 kts | 32° |
| 2026-05-05 16:19 | 59.41959 | 17.86231 | 4090 ft | 151 kts | 31° |
| 2026-05-05 16:19 | 59.42807 | 17.87427 | 4059 ft | 148 kts | 24° |
| 2026-05-05 16:19 | 59.44734 | 17.88529 | 3815 ft | 143 kts | 6° |
| 2026-05-05 16:20 | 59.46358 | 17.89173 | 3541 ft | 151 kts | 5° |
| 2026-05-05 16:20 | 59.48559 | 17.89985 | 3106 ft | 162 kts | 5° |
| 2026-05-05 16:21 | 59.50774 | 17.90791 | 2598 ft | 161 kts | 5° |